createdAt,value
2023-05-08T00:02:49.995Z,12.38
2023-05-08T00:05:53.470Z,12.38
2023-05-08T00:08:56.064Z,12.30
2023-05-08T00:11:58.638Z,12.26
2023-05-08T00:15:01.840Z,12.21
2023-05-08T00:18:04.550Z,12.12
2023-05-08T00:21:07.442Z,12.17
2023-05-08T00:24:09.945Z,12.30
2023-05-08T00:27:13.596Z,12.26
2023-05-08T00:30:16.545Z,12.30
2023-05-08T00:33:19.278Z,12.12
2023-05-08T00:36:22.166Z,12.14
2023-05-08T00:39:24.745Z,12.10
2023-05-08T00:42:27.655Z,12.08
2023-05-08T00:45:33.778Z,11.86
2023-05-08T00:48:37.954Z,11.70
2023-05-08T00:51:42.416Z,11.79
2023-05-08T00:54:45.173Z,11.84
2023-05-08T00:57:48.788Z,11.73
2023-05-08T01:00:51.854Z,11.68
2023-05-08T01:03:56.465Z,11.48
2023-05-08T01:06:59.337Z,11.47
2023-05-08T01:10:02.021Z,11.38
2023-05-08T01:13:42.337Z,11.42
2023-05-08T01:16:54.452Z,11.48
2023-05-08T01:20:23.399Z,11.40
2023-05-08T01:24:03.523Z,11.38
2023-05-08T01:27:31.075Z,11.49
2023-05-08T01:31:01.572Z,11.36
2023-05-08T01:34:06.757Z,11.48
2023-05-08T01:37:16.848Z,11.43
2023-05-08T01:40:46.834Z,11.52
2023-05-08T01:44:10.559Z,11.50
2023-05-08T01:47:13.039Z,11.51
2023-05-08T01:50:18.846Z,11.50
2023-05-08T01:53:33.396Z,11.50
2023-05-08T01:56:35.913Z,11.48
2023-05-08T01:59:38.564Z,11.57
2023-05-08T02:02:44.031Z,11.51
2023-05-08T02:05:46.676Z,11.57
2023-05-08T02:08:49.334Z,11.56
2023-05-08T02:11:53.683Z,11.58
2023-05-08T02:14:56.087Z,11.65
2023-05-08T02:17:59.131Z,11.56
2023-05-08T02:21:03.384Z,11.63
2023-05-08T02:24:09.494Z,11.66
2023-05-08T02:27:12.073Z,11.67
2023-05-08T02:30:15.811Z,11.73
2023-05-08T02:33:19.150Z,11.67
2023-05-08T02:36:21.588Z,11.75
2023-05-08T02:39:27.301Z,11.62
2023-05-08T02:42:30.319Z,11.62
2023-05-08T02:45:57.816Z,11.58
2023-05-08T02:49:09.616Z,11.49
2023-05-08T02:52:19.385Z,11.48
2023-05-08T02:55:43.935Z,11.43
2023-05-08T02:58:49.433Z,11.48
2023-05-08T03:02:09.850Z,11.41
2023-05-08T03:05:32.776Z,11.48
2023-05-08T03:08:35.795Z,11.37
2023-05-08T03:11:41.180Z,11.40
2023-05-08T03:14:47.230Z,11.34
2023-05-08T03:17:51.145Z,11.27
2023-05-08T03:20:55.396Z,11.26
2023-05-08T03:24:00.313Z,11.23
2023-05-08T03:27:03.105Z,11.23
2023-05-08T03:30:06.510Z,11.21
2023-05-08T03:33:15.370Z,11.21
2023-05-08T03:36:17.984Z,11.12
2023-05-08T03:39:20.629Z,11.08
2023-05-08T03:42:26.248Z,11.10
2023-05-08T03:45:29.687Z,11.08
2023-05-08T03:48:36.264Z,10.93
2023-05-08T03:51:42.013Z,11.13
2023-05-08T03:54:45.906Z,10.88
2023-05-08T03:58:15.768Z,10.94
2023-05-08T04:02:42.227Z,11.19
2023-05-08T04:06:22.940Z,11.25
2023-05-08T04:09:28.832Z,11.26
2023-05-08T04:12:45.671Z,11.29
2023-05-08T04:15:52.982Z,11.08
2023-05-08T04:19:02.116Z,11.02
2023-05-08T04:22:07.720Z,11.11
2023-05-08T04:25:13.101Z,11.34
2023-05-08T04:28:16.495Z,11.54
2023-05-08T04:31:19.966Z,11.38
2023-05-08T04:34:23.254Z,11.44
2023-05-08T04:37:29.668Z,11.67
2023-05-08T04:40:34.326Z,11.66
2023-05-08T04:43:40.338Z,11.85
2023-05-08T04:46:43.764Z,11.71
2023-05-08T04:49:46.549Z,11.66
2023-05-08T04:52:49.124Z,11.76
2023-05-08T04:55:52.990Z,11.66
2023-05-08T04:58:56.326Z,11.81
2023-05-08T05:02:01.940Z,11.77
2023-05-08T05:05:06.194Z,11.82
2023-05-08T05:08:09.966Z,11.79
2023-05-08T05:11:13.290Z,11.85
2023-05-08T05:14:17.654Z,11.95
2023-05-08T05:17:20.179Z,11.98
2023-05-08T05:20:23.669Z,11.95
2023-05-08T05:23:26.353Z,11.92
2023-05-08T05:26:29.247Z,11.89
2023-05-08T05:29:32.320Z,11.92
2023-05-08T05:32:35.188Z,11.91
2023-05-08T05:35:38.139Z,11.87
2023-05-08T05:38:40.865Z,12.10
2023-05-08T05:41:44.597Z,12.27
2023-05-08T05:44:47.772Z,12.16
2023-05-08T05:47:50.905Z,12.04
2023-05-08T05:50:56.192Z,12.15
2023-05-08T05:53:59.085Z,12.02
2023-05-08T05:57:02.289Z,11.97
2023-05-08T06:00:06.180Z,12.00
2023-05-08T06:03:17.004Z,12.20
2023-05-08T06:06:19.632Z,12.29
2023-05-08T06:09:23.044Z,12.50
2023-05-08T06:12:28.576Z,12.76
2023-05-08T06:15:31.924Z,12.73
2023-05-08T06:18:34.869Z,12.92
2023-05-08T06:21:37.532Z,13.13
2023-05-08T06:24:40.156Z,13.33
2023-05-08T06:27:43.295Z,13.35
2023-05-08T06:30:45.993Z,13.35
2023-05-08T06:33:48.639Z,13.26
2023-05-08T06:36:51.050Z,13.54
2023-05-08T06:40:03.894Z,13.66
2023-05-08T06:43:13.592Z,13.78
2023-05-08T06:46:16.311Z,13.98
2023-05-08T06:49:18.984Z,13.90
2023-05-08T06:52:21.404Z,14.05
2023-05-08T06:55:23.874Z,14.14
2023-05-08T06:58:26.355Z,14.36
2023-05-08T07:01:28.872Z,14.58
2023-05-08T07:04:32.363Z,14.61
2023-05-08T07:07:35.028Z,14.55
2023-05-08T07:10:37.919Z,14.70
2023-05-08T07:13:42.155Z,14.68
2023-05-08T07:16:44.601Z,15.00
2023-05-08T07:19:51.142Z,15.07
2023-05-08T07:22:53.906Z,15.18
2023-05-08T07:25:57.898Z,15.18
2023-05-08T07:29:00.442Z,15.61
2023-05-08T07:32:03.091Z,15.53
2023-05-08T07:35:10.337Z,15.40
2023-05-08T07:38:13.308Z,15.86
2023-05-08T07:41:16.276Z,15.89
2023-05-08T07:44:18.881Z,16.05
2023-05-08T07:47:22.026Z,16.17
2023-05-08T07:50:25.454Z,16.41
2023-05-08T07:53:27.968Z,16.49
2023-05-08T07:56:30.494Z,16.66
2023-05-08T07:59:33.498Z,16.91
2023-05-08T08:02:36.059Z,16.87
2023-05-08T08:05:39.807Z,17.07
2023-05-08T08:08:42.368Z,17.41
2023-05-08T08:11:45.006Z,17.33
2023-05-08T08:14:47.430Z,17.39
2023-05-08T08:17:49.934Z,17.41
2023-05-08T08:20:52.627Z,17.85
2023-05-08T08:23:55.190Z,18.10
2023-05-08T08:27:00.582Z,17.80
2023-05-08T08:30:16.153Z,17.94
2023-05-08T08:33:20.394Z,18.22
2023-05-08T08:36:23.653Z,18.69
2023-05-08T08:39:26.477Z,18.62
2023-05-08T08:42:29.392Z,18.73
2023-05-08T08:45:31.927Z,18.83
2023-05-08T08:48:34.646Z,19.00
2023-05-08T08:51:44.449Z,19.22
2023-05-08T08:54:47.975Z,19.50
2023-05-08T08:57:57.671Z,19.63
2023-05-08T09:01:00.955Z,19.55
2023-05-08T09:04:04.319Z,19.42
2023-05-08T09:07:08.932Z,19.83
2023-05-08T09:10:15.662Z,20.11
2023-05-08T09:13:19.939Z,20.38
2023-05-08T09:16:23.345Z,20.24
2023-05-08T09:19:28.957Z,20.77
2023-05-08T09:22:31.838Z,21.03
2023-05-08T09:25:50.784Z,21.28
2023-05-08T09:29:16.426Z,21.32
2023-05-08T09:32:19.096Z,21.24
2023-05-08T09:35:21.946Z,21.27
2023-05-08T09:38:42.753Z,21.49
2023-05-08T09:42:04.913Z,21.80
2023-05-08T09:45:08.461Z,21.88
2023-05-08T09:48:11.331Z,21.87
2023-05-08T09:51:14.166Z,22.20
2023-05-08T09:54:20.605Z,22.56
2023-05-08T09:57:23.221Z,22.73
2023-05-08T10:00:29.226Z,23.21
2023-05-08T10:03:48.400Z,23.42
2023-05-08T10:07:00.592Z,23.15
2023-05-08T10:10:04.453Z,23.30
2023-05-08T10:13:07.373Z,23.68
2023-05-08T10:16:18.779Z,23.41
2023-05-08T10:19:23.994Z,23.36
2023-05-08T10:22:26.553Z,23.87
2023-05-08T10:25:37.129Z,23.58
2023-05-08T10:28:58.543Z,23.56
2023-05-08T10:32:01.360Z,24.47
2023-05-08T10:35:04.181Z,24.81
2023-05-08T10:38:10.389Z,24.76
2023-05-08T10:41:13.244Z,24.83
2023-05-08T10:44:15.900Z,25.06
2023-05-08T10:48:04.201Z,25.71
2023-05-08T10:51:10.912Z,26.04
2023-05-08T10:54:19.493Z,26.39
2023-05-08T10:57:22.209Z,26.18
2023-05-08T11:00:24.662Z,26.63
2023-05-08T11:03:32.556Z,27.12
2023-05-08T11:06:46.392Z,27.49
2023-05-08T11:09:49.360Z,27.77
2023-05-08T11:12:51.826Z,27.87
2023-05-08T11:15:54.792Z,28.05
2023-05-08T11:19:16.660Z,28.03
2023-05-08T11:22:29.370Z,28.85
2023-05-08T11:25:44.494Z,29.12
2023-05-08T11:28:53.579Z,29.11
2023-05-08T11:31:56.742Z,29.53
2023-05-08T11:34:59.759Z,29.86
2023-05-08T11:38:15.549Z,29.59
2023-05-08T11:41:24.511Z,30.10
2023-05-08T11:44:27.252Z,30.28
2023-05-08T11:47:37.072Z,30.63
2023-05-08T11:50:39.973Z,30.99
2023-05-08T11:53:43.490Z,31.30
2023-05-08T11:56:47.875Z,31.70
2023-05-08T11:59:51.411Z,31.70
2023-05-08T12:02:53.979Z,31.91
2023-05-08T12:05:58.808Z,31.70
2023-05-08T12:09:01.654Z,31.78
2023-05-08T12:12:04.433Z,32.51
2023-05-08T12:15:14.377Z,32.57
2023-05-08T12:18:17.275Z,32.58
2023-05-08T12:21:21.347Z,32.70
2023-05-08T12:24:24.353Z,32.46
2023-05-08T12:27:27.035Z,33.08
2023-05-08T12:30:29.466Z,33.17
2023-05-08T12:33:31.999Z,33.22
2023-05-08T12:36:38.223Z,33.49
2023-05-08T12:39:44.301Z,33.27
2023-05-08T12:42:48.802Z,33.64
2023-05-08T12:45:54.416Z,33.43
2023-05-08T12:49:04.653Z,33.48
2023-05-08T12:52:08.573Z,33.30
2023-05-08T12:55:41.136Z,33.40
2023-05-08T12:58:43.602Z,34.15
2023-05-08T13:01:51.407Z,33.75
2023-05-08T13:04:54.671Z,33.92
2023-05-08T13:08:04.421Z,33.79
2023-05-08T13:11:07.083Z,33.19
2023-05-08T13:14:09.697Z,32.23
2023-05-08T13:17:18.379Z,32.11
2023-05-08T13:20:20.970Z,32.60
2023-05-08T13:23:23.682Z,32.92
2023-05-08T13:26:26.527Z,32.09
2023-05-08T13:29:28.954Z,31.53
2023-05-08T13:32:31.822Z,31.68
2023-05-08T13:35:34.469Z,31.40
2023-05-08T13:38:37.882Z,31.59
2023-05-08T13:41:40.372Z,31.65
2023-05-08T13:44:44.480Z,31.89
2023-05-08T13:47:48.463Z,31.33
2023-05-08T13:50:51.027Z,31.18
2023-05-08T13:53:53.543Z,30.70
2023-05-08T13:56:56.248Z,30.66
2023-05-08T13:59:59.213Z,30.65
2023-05-08T14:03:02.166Z,30.16
2023-05-08T14:06:05.599Z,29.60
2023-05-08T14:09:08.313Z,30.09
2023-05-08T14:12:10.780Z,29.85
2023-05-08T14:15:13.544Z,29.34
2023-05-08T14:18:16.309Z,29.59
2023-05-08T14:21:18.777Z,29.14
2023-05-08T14:24:21.293Z,29.76
2023-05-08T14:27:23.707Z,29.52
2023-05-08T14:30:26.347Z,28.72
2023-05-08T14:33:28.834Z,28.57
2023-05-08T14:36:31.441Z,28.74
2023-05-08T14:39:34.022Z,29.13
2023-05-08T14:42:36.710Z,29.39
2023-05-08T14:45:39.354Z,29.46
2023-05-08T14:48:41.941Z,28.81
2023-05-08T14:51:44.608Z,28.73
2023-05-08T14:54:53.049Z,29.17
2023-05-08T14:57:56.415Z,29.08
2023-05-08T15:00:59.327Z,28.84
2023-05-08T15:04:02.481Z,29.23
2023-05-08T15:07:05.544Z,28.75
2023-05-08T15:10:08.374Z,29.02
2023-05-08T15:13:10.934Z,28.13
2023-05-08T15:16:14.491Z,27.41
2023-05-08T15:19:17.581Z,27.31
2023-05-08T15:22:20.382Z,27.50
2023-05-08T15:25:23.185Z,27.82
2023-05-08T15:28:27.257Z,27.50
2023-05-08T15:31:30.156Z,27.66
2023-05-08T15:34:33.118Z,27.79
2023-05-08T15:37:37.446Z,27.28
2023-05-08T15:40:42.180Z,26.75
2023-05-08T15:43:45.499Z,26.17
2023-05-08T15:46:48.255Z,25.79
2023-05-08T15:49:52.108Z,25.45
2023-05-08T15:52:54.950Z,24.79
2023-05-08T15:55:57.575Z,25.17
2023-05-08T15:59:00.426Z,25.11
2023-05-08T16:02:03.190Z,24.86
2023-05-08T16:05:07.671Z,24.03
2023-05-08T16:08:12.866Z,23.83
2023-05-08T16:11:15.585Z,23.32
2023-05-08T16:14:20.059Z,22.77
2023-05-08T16:17:23.118Z,22.47
2023-05-08T16:20:25.617Z,21.87
2023-05-08T16:23:28.211Z,21.60
2023-05-08T16:26:30.715Z,20.99
2023-05-08T16:29:33.266Z,20.47
2023-05-08T16:32:36.432Z,20.22
2023-05-08T16:35:40.311Z,19.75
2023-05-08T16:38:42.896Z,19.60
2023-05-08T16:41:45.611Z,19.37
2023-05-08T16:44:48.078Z,19.14
2023-05-08T16:47:51.140Z,18.81
2023-05-08T16:50:53.761Z,18.99
2023-05-08T16:53:57.995Z,18.72
2023-05-08T16:57:02.722Z,18.46
2023-05-08T17:00:07.434Z,18.35
2023-05-08T17:03:10.142Z,18.22
2023-05-08T17:06:12.866Z,18.17
2023-05-08T17:09:17.773Z,18.04
2023-05-08T17:12:20.242Z,17.89
2023-05-08T17:15:22.702Z,17.72
2023-05-08T17:18:26.282Z,17.45
2023-05-08T17:21:30.259Z,17.32
2023-05-08T17:24:32.862Z,17.29
2023-05-08T17:27:36.490Z,17.12
2023-05-08T17:30:39.631Z,16.97
2023-05-08T17:33:42.381Z,16.81
2023-05-08T17:36:45.082Z,16.60
2023-05-08T17:39:47.590Z,16.53
2023-05-08T17:42:49.978Z,16.44
2023-05-08T17:45:52.612Z,16.33
2023-05-08T17:48:57.397Z,16.24
2023-05-08T17:51:59.820Z,16.07
2023-05-08T17:55:02.916Z,16.08
2023-05-08T17:58:05.557Z,15.95
2023-05-08T18:01:08.251Z,15.93
2023-05-08T18:04:10.969Z,15.71
2023-05-08T18:07:13.504Z,15.61
2023-05-08T18:10:16.277Z,15.59
2023-05-08T18:13:19.200Z,15.27
2023-05-08T18:16:22.298Z,15.25
2023-05-08T18:19:25.132Z,15.09
2023-05-08T18:22:27.649Z,14.75
2023-05-08T18:25:30.257Z,14.92
2023-05-08T18:28:32.844Z,14.72
2023-05-08T18:31:35.451Z,14.59
2023-05-08T18:34:37.960Z,14.52
2023-05-08T18:37:40.639Z,14.54
2023-05-08T18:40:43.574Z,14.57
2023-05-08T18:43:46.065Z,14.39
2023-05-08T18:46:48.741Z,14.24
2023-05-08T18:49:52.612Z,14.11
2023-05-08T18:52:55.172Z,14.01
2023-05-08T18:55:57.627Z,14.09
2023-05-08T18:59:00.983Z,13.86
2023-05-08T19:02:03.903Z,13.99
2023-05-08T19:05:07.003Z,13.77
2023-05-08T19:08:09.496Z,13.87
2023-05-08T19:11:12.012Z,13.94
2023-05-08T19:14:14.843Z,13.98
2023-05-08T19:17:17.458Z,13.69
2023-05-08T19:20:20.774Z,13.51
2023-05-08T19:23:23.160Z,13.57
2023-05-08T19:26:26.456Z,13.69
2023-05-08T19:29:33.635Z,13.60
2023-05-08T19:32:37.867Z,13.52
2023-05-08T19:35:42.918Z,13.68
2023-05-08T19:38:45.551Z,13.37
2023-05-08T19:41:48.797Z,13.26
2023-05-08T19:44:51.769Z,13.14
2023-05-08T19:47:54.577Z,13.12
2023-05-08T19:50:57.107Z,13.01
2023-05-08T19:53:59.636Z,13.05
2023-05-08T19:57:02.181Z,12.90
2023-05-08T20:00:06.735Z,12.94
2023-05-08T20:03:09.314Z,12.97
2023-05-08T20:06:11.903Z,12.94
2023-05-08T20:09:14.864Z,12.90
2023-05-08T20:12:17.693Z,12.86
2023-05-08T20:15:21.617Z,12.83
2023-05-08T20:18:25.068Z,12.55
2023-05-08T20:21:32.405Z,12.52
2023-05-08T20:24:35.341Z,12.53
2023-05-08T20:27:40.054Z,12.66
2023-05-08T20:30:42.941Z,12.67
2023-05-08T20:33:45.888Z,12.55
2023-05-08T20:36:48.253Z,12.54
2023-05-08T20:39:50.988Z,12.55
2023-05-08T20:42:53.542Z,12.43
2023-05-08T20:45:56.160Z,12.37
2023-05-08T20:49:04.775Z,12.34
2023-05-08T20:52:07.228Z,12.31
2023-05-08T20:55:09.986Z,12.34
2023-05-08T20:58:12.410Z,12.13
2023-05-08T21:01:15.248Z,12.16
2023-05-08T21:04:18.021Z,12.15
2023-05-08T21:07:20.576Z,12.00
2023-05-08T21:10:24.027Z,12.08
2023-05-08T21:13:26.830Z,12.12
2023-05-08T21:16:29.417Z,12.10
2023-05-08T21:19:32.265Z,11.93
2023-05-08T21:22:35.058Z,11.94
2023-05-08T21:25:49.860Z,11.82
2023-05-08T21:28:53.750Z,11.91
2023-05-08T21:31:56.327Z,11.80
2023-05-08T21:34:58.933Z,11.84
2023-05-08T21:38:01.612Z,11.75
2023-05-08T21:41:08.350Z,11.68
2023-05-08T21:44:13.062Z,11.55
2023-05-08T21:47:15.604Z,11.66
2023-05-08T21:50:18.214Z,11.68
2023-05-08T21:53:20.602Z,11.68
2023-05-08T21:56:23.506Z,11.59
2023-05-08T21:59:26.299Z,11.48
2023-05-08T22:02:28.897Z,11.36
2023-05-08T22:05:31.373Z,11.28
2023-05-08T22:08:33.880Z,11.35
2023-05-08T22:11:36.316Z,11.28
2023-05-08T22:14:38.941Z,11.49
2023-05-08T22:17:41.818Z,11.41
2023-05-08T22:20:44.416Z,11.41
2023-05-08T22:23:46.984Z,11.28
2023-05-08T22:26:49.386Z,11.28
2023-05-08T22:29:51.725Z,11.18
2023-05-08T22:32:57.192Z,11.14
2023-05-08T22:36:00.667Z,11.12
2023-05-08T22:39:04.221Z,11.15
2023-05-08T22:42:07.166Z,11.06
2023-05-08T22:45:10.535Z,11.07
2023-05-08T22:48:13.119Z,11.00
2023-05-08T22:51:15.654Z,11.08
2023-05-08T22:54:18.277Z,11.02
2023-05-08T22:57:21.301Z,10.98
2023-05-08T23:00:23.803Z,10.86
2023-05-08T23:03:26.500Z,10.65
2023-05-08T23:06:29.002Z,10.65
2023-05-08T23:09:31.506Z,10.72
2023-05-08T23:12:33.959Z,10.80
2023-05-08T23:15:37.048Z,10.70
2023-05-08T23:18:39.540Z,10.59
2023-05-08T23:21:42.002Z,10.54
2023-05-08T23:24:44.523Z,10.65
2023-05-08T23:27:47.022Z,10.68
2023-05-08T23:30:49.477Z,10.81
2023-05-08T23:33:52.094Z,10.66
2023-05-08T23:36:54.827Z,10.47
2023-05-08T23:39:57.311Z,10.44
2023-05-08T23:42:59.709Z,10.33
2023-05-08T23:46:02.216Z,10.25
2023-05-08T23:49:08.250Z,10.29
2023-05-08T23:52:10.816Z,10.29
2023-05-08T23:55:13.353Z,10.37
2023-05-08T23:58:16.015Z,10.34
